createdAt,value
2018-07-13T00:01:35.096Z,100062.08
2018-07-13T00:04:06.122Z,100061.81
2018-07-13T00:06:37.358Z,100061.07
2018-07-13T00:09:11.753Z,100061.56
2018-07-13T00:11:42.150Z,100063.98
2018-07-13T00:14:21.389Z,100067.55
2018-07-13T00:16:52.841Z,100068.48
2018-07-13T00:19:23.369Z,100068.86
2018-07-13T00:21:53.524Z,100073.31
2018-07-13T00:24:23.466Z,100072.17
2018-07-13T00:26:53.327Z,100075.40
2018-07-13T00:29:23.713Z,100083.09
2018-07-13T00:31:53.497Z,100085.39
2018-07-13T00:34:23.394Z,100086.73
2018-07-13T00:36:53.686Z,100087.74
2018-07-13T00:39:23.590Z,100083.09
2018-07-13T00:41:53.365Z,100087.11
2018-07-13T00:44:23.221Z,100084.75
2018-07-13T00:46:52.999Z,100088.44
2018-07-13T00:49:22.853Z,100086.14
2018-07-13T00:51:53.748Z,100094.53
2018-07-13T00:54:25.070Z,100078.61
2018-07-13T00:56:55.985Z,100075.31
2018-07-13T00:59:26.845Z,100095.28
2018-07-13T01:01:58.151Z,100099.98
2018-07-13T01:04:28.969Z,100102.02
2018-07-13T01:06:59.963Z,100108.69
2018-07-13T01:09:30.798Z,100107.67
2018-07-13T01:12:03.428Z,100106.02
2018-07-13T01:14:33.219Z,100112.20
2018-07-13T01:17:04.599Z,100108.05
2018-07-13T01:19:35.150Z,100110.89
2018-07-13T01:22:06.113Z,100105.23
2018-07-13T01:24:36.963Z,100107.05
2018-07-13T01:27:07.809Z,100107.58
2018-07-13T01:29:39.027Z,100091.08
2018-07-13T01:32:09.633Z,100096.05
2018-07-13T01:34:39.889Z,100092.73
2018-07-13T01:37:10.778Z,100098.65
2018-07-13T01:39:42.026Z,100113.19
2018-07-13T01:42:12.954Z,100120.97
2018-07-13T01:44:43.778Z,100120.05
2018-07-13T01:47:15.080Z,100114.11
2018-07-13T01:49:45.912Z,100122.44
2018-07-13T01:52:16.822Z,100128.75
2018-07-13T01:54:48.117Z,100125.52
2018-07-13T01:57:19.010Z,100122.89
2018-07-13T01:59:49.846Z,100128.75
2018-07-13T02:02:21.173Z,100105.75
2018-07-13T02:04:52.017Z,100126.45
2018-07-13T02:07:22.944Z,100138.30
2018-07-13T02:09:55.628Z,100140.16
2018-07-13T02:12:25.566Z,100138.50
2018-07-13T02:14:56.234Z,100144.86
2018-07-13T02:17:27.125Z,100145.87
2018-07-13T02:19:57.972Z,100149.88
2018-07-13T02:22:28.849Z,100156.06
2018-07-13T02:24:58.742Z,100159.95
2018-07-13T02:27:30.534Z,100161.64
2018-07-13T02:30:01.055Z,100158.86
2018-07-13T02:32:31.961Z,100159.73
2018-07-13T02:35:02.790Z,100158.57
2018-07-13T02:37:34.158Z,100156.63
2018-07-13T02:40:05.127Z,100171.02
2018-07-13T02:42:36.045Z,100169.29
2018-07-13T02:45:07.118Z,100170.34
2018-07-13T02:47:38.276Z,100159.98
2018-07-13T02:50:08.922Z,100168.67
2018-07-13T02:52:40.169Z,100168.34
2018-07-13T02:55:10.934Z,100170.04
2018-07-13T02:57:41.818Z,100168.38
2018-07-13T03:00:13.124Z,100160.57
2018-07-13T03:02:44.045Z,100168.38
2018-07-13T03:05:14.907Z,100173.78
2018-07-13T03:07:45.858Z,100176.12
2018-07-13T03:10:17.069Z,100190.78
2018-07-13T03:12:47.960Z,100189.61
2018-07-13T03:15:18.786Z,100188.09
2018-07-13T03:17:50.151Z,100189.61
2018-07-13T03:20:21.034Z,100186.45
2018-07-13T03:22:51.913Z,100185.77
2018-07-13T03:25:22.800Z,100184.79
2018-07-13T03:27:54.132Z,100191.45
2018-07-13T03:30:25.040Z,100191.13
2018-07-13T03:32:55.937Z,100192.30
2018-07-13T03:35:26.833Z,100189.61
2018-07-13T03:37:57.761Z,100185.77
2018-07-13T03:40:29.110Z,100183.27
2018-07-13T03:43:00.064Z,100187.11
2018-07-13T03:45:30.914Z,100181.94
2018-07-13T03:48:01.812Z,100183.44
2018-07-13T03:50:33.010Z,100188.77
2018-07-13T03:53:03.929Z,100196.13
2018-07-13T03:55:34.770Z,100188.28
2018-07-13T03:58:06.163Z,100182.78
2018-07-13T04:00:36.069Z,100184.41
2018-07-13T04:03:07.050Z,100187.70
2018-07-13T04:05:38.305Z,100192.75
2018-07-13T04:08:09.067Z,100201.75
2018-07-13T04:10:39.906Z,100194.05
2018-07-13T04:13:11.242Z,100198.21
2018-07-13T04:15:42.038Z,100208.45
2018-07-13T04:18:16.177Z,100200.11
2018-07-13T04:20:46.042Z,100204.77
2018-07-13T04:23:15.982Z,100213.11
2018-07-13T04:25:46.066Z,100203.11
2018-07-13T04:28:17.455Z,100211.28
2018-07-13T04:30:48.277Z,100210.43
2018-07-13T04:33:19.135Z,100208.07
2018-07-13T04:35:50.054Z,100209.86
2018-07-13T04:38:20.898Z,100211.55
2018-07-13T04:40:51.827Z,100220.09
2018-07-13T04:43:23.161Z,100224.10
2018-07-13T04:45:54.185Z,100221.44
2018-07-13T04:48:25.222Z,100233.22
2018-07-13T04:50:56.290Z,100235.53
2018-07-13T04:53:27.193Z,100242.66
2018-07-13T04:55:58.237Z,100245.36
2018-07-13T04:58:29.150Z,100243.67
2018-07-13T05:01:00.095Z,100239.48
2018-07-13T05:03:30.290Z,100243.77
2018-07-13T05:06:01.570Z,100241.92
2018-07-13T05:08:32.727Z,100241.86
2018-07-13T05:11:02.896Z,100239.16
2018-07-13T05:13:33.745Z,100237.44
2018-07-13T05:16:05.689Z,100238.77
2018-07-13T05:18:37.143Z,100228.58
2018-07-13T05:21:07.269Z,100226.56
2018-07-13T05:23:38.278Z,100232.36
2018-07-13T05:26:09.495Z,100233.30
2018-07-13T05:28:40.340Z,100234.72
2018-07-13T05:31:11.309Z,100236.82
2018-07-13T05:33:42.215Z,100230.91
2018-07-13T05:36:14.198Z,100228.16
2018-07-13T05:38:44.516Z,100223.53
2018-07-13T05:41:16.047Z,100214.09
2018-07-13T05:43:46.217Z,100211.00
2018-07-13T05:46:17.315Z,100217.42
2018-07-13T05:48:48.236Z,100211.77
2018-07-13T05:51:20.509Z,100197.17
2018-07-13T05:53:50.511Z,100216.64
2018-07-13T05:56:21.278Z,100214.70
2018-07-13T05:58:52.081Z,100216.95
2018-07-13T06:01:23.154Z,100217.22
2018-07-13T06:03:55.463Z,100221.81
2018-07-13T06:06:25.670Z,100223.42
2018-07-13T06:08:56.118Z,100228.02
2018-07-13T06:11:27.163Z,100237.09
2018-07-13T06:13:58.096Z,100243.58
2018-07-13T06:16:29.081Z,100249.38
2018-07-13T06:19:00.706Z,100255.06
2018-07-13T06:21:30.942Z,100257.60
2018-07-13T06:24:01.258Z,100265.19
2018-07-13T06:26:32.481Z,100259.76
2018-07-13T06:29:03.073Z,100255.98
2018-07-13T06:31:33.655Z,100259.52
2018-07-13T06:34:04.020Z,100254.66
2018-07-13T06:36:34.965Z,100253.24
2018-07-13T06:39:08.015Z,100253.17
2018-07-13T06:41:38.424Z,100257.19
2018-07-13T06:44:08.325Z,100255.13
2018-07-13T06:46:45.705Z,100247.15
2018-07-13T06:49:16.019Z,100241.73
2018-07-13T06:51:46.038Z,100239.20
2018-07-13T06:54:15.811Z,100238.69
2018-07-13T06:56:45.954Z,100237.67
2018-07-13T06:59:18.307Z,100242.02
2018-07-13T07:01:49.774Z,100237.41
2018-07-13T07:04:33.009Z,100239.69
2018-07-13T07:07:06.418Z,100232.59
2018-07-13T07:09:36.611Z,100225.53
2018-07-13T07:13:19.635Z,100233.13
2018-07-13T07:15:49.634Z,100226.89
2018-07-13T07:18:19.922Z,100233.73
2018-07-13T07:20:50.167Z,100236.23
2018-07-13T07:23:20.089Z,100235.75
2018-07-13T07:25:50.337Z,100238.02
2018-07-13T07:28:20.210Z,100242.18
2018-07-13T07:30:50.279Z,100239.51
2018-07-13T07:33:20.101Z,100247.14
2018-07-13T07:35:50.064Z,100247.02
2018-07-13T07:38:20.586Z,100250.95
2018-07-13T07:40:50.980Z,100253.26
2018-07-13T07:43:21.870Z,100251.59
2018-07-13T07:45:52.457Z,100265.16
2018-07-13T07:48:22.242Z,100257.80
2018-07-13T07:50:52.086Z,100259.58
2018-07-13T07:53:22.410Z,100262.88
2018-07-13T07:55:52.214Z,100261.63
2018-07-13T07:58:22.065Z,100258.41
2018-07-13T08:00:52.347Z,100249.84
2018-07-13T08:03:22.223Z,100258.49
2018-07-13T08:05:52.305Z,100250.92
2018-07-13T08:08:22.086Z,100254.53
2018-07-13T08:10:52.003Z,100255.06
2018-07-13T08:13:22.006Z,100257.30
2018-07-13T08:15:52.111Z,100252.76
2018-07-13T08:18:22.070Z,100251.79
2018-07-13T08:20:52.531Z,100241.33
2018-07-13T08:23:22.593Z,100243.52
2018-07-13T08:25:53.387Z,100242.23
2018-07-13T08:28:23.678Z,100245.78
2018-07-13T08:30:58.326Z,100231.88
2018-07-13T08:33:28.114Z,100245.96
2018-07-13T08:35:58.114Z,100245.48
2018-07-13T08:38:28.107Z,100235.91
2018-07-13T08:40:58.191Z,100252.05
2018-07-13T08:43:28.287Z,100251.73
2018-07-13T08:45:58.207Z,100254.66
2018-07-13T08:48:28.149Z,100253.92
2018-07-13T08:50:58.196Z,100256.98
2018-07-13T08:53:28.165Z,100252.88
2018-07-13T08:55:58.218Z,100253.25
2018-07-13T08:58:28.075Z,100257.17
2018-07-13T09:00:58.345Z,100253.00
2018-07-13T09:03:28.147Z,100255.62
2018-07-13T09:05:58.230Z,100255.70
2018-07-13T09:08:28.291Z,100253.88
2018-07-13T09:10:58.230Z,100258.43
2018-07-13T09:13:28.046Z,100245.78
2018-07-13T09:15:57.997Z,100256.43
2018-07-13T09:18:28.154Z,100270.08
2018-07-13T09:20:57.983Z,100254.79
2018-07-13T09:23:28.037Z,100258.47
2018-07-13T09:25:57.999Z,100256.45
2018-07-13T09:28:27.970Z,100250.90
2018-07-13T09:30:57.990Z,100254.56
2018-07-13T09:33:27.941Z,100260.22
2018-07-13T09:35:58.130Z,100254.08
2018-07-13T09:38:28.141Z,100259.62
2018-07-13T09:40:58.227Z,100257.23
2018-07-13T09:43:28.019Z,100258.13
2018-07-13T09:45:58.097Z,100257.53
2018-07-13T09:48:28.034Z,100257.98
2018-07-13T09:50:57.968Z,100255.13
2018-07-13T09:53:28.078Z,100264.63
2018-07-13T09:55:57.989Z,100270.31
2018-07-13T09:58:37.868Z,100268.50
2018-07-13T10:01:13.090Z,100268.75
2018-07-13T10:03:43.039Z,100268.77
2018-07-13T10:06:13.161Z,100268.03
2018-07-13T10:08:43.494Z,100272.72
2018-07-13T10:11:13.405Z,100267.55
2018-07-13T10:13:43.530Z,100258.47
2018-07-13T10:16:13.765Z,100267.42
2018-07-13T10:18:44.138Z,100263.23
2018-07-13T10:21:14.613Z,100258.43
2018-07-13T10:23:45.863Z,100264.16
2018-07-13T10:26:23.565Z,100267.70
2018-07-13T10:28:53.517Z,100252.45
2018-07-13T10:31:23.687Z,100261.44
2018-07-13T10:33:53.887Z,100264.88
2018-07-13T10:36:24.169Z,100264.83
2018-07-13T10:38:54.093Z,100264.75
2018-07-13T10:41:24.017Z,100267.16
2018-07-13T10:43:54.052Z,100258.89
2018-07-13T10:46:24.235Z,100257.62
2018-07-13T10:48:54.141Z,100255.55
2018-07-13T10:51:24.058Z,100246.86
2018-07-13T10:53:54.147Z,100254.93
2018-07-13T10:56:25.093Z,100249.89
2018-07-13T10:58:55.187Z,100242.24
2018-07-13T11:01:24.961Z,100239.23
2018-07-13T11:03:55.029Z,100231.11
2018-07-13T11:06:24.982Z,100238.02
2018-07-13T11:08:55.022Z,100238.64
2018-07-13T11:11:24.966Z,100241.55
2018-07-13T11:13:55.133Z,100238.78
2018-07-13T11:16:25.122Z,100248.83
2018-07-13T11:18:54.957Z,100250.18
2018-07-13T11:21:25.086Z,100243.64
2018-07-13T11:23:54.941Z,100244.80
2018-07-13T11:26:25.507Z,100228.92
2018-07-13T11:28:55.701Z,100231.29
2018-07-13T11:31:25.618Z,100224.66
2018-07-13T11:33:55.562Z,100218.66
2018-07-13T11:36:25.407Z,100225.50
2018-07-13T11:38:55.294Z,100230.69
2018-07-13T11:41:25.088Z,100219.56
2018-07-13T11:43:55.054Z,100223.37
2018-07-13T11:46:24.917Z,100220.44
2018-07-13T11:48:54.990Z,100217.23
2018-07-13T11:51:24.867Z,100212.64
2018-07-13T11:53:54.949Z,100210.66
2018-07-13T11:56:25.118Z,100202.59
2018-07-13T11:58:55.210Z,100206.14
2018-07-13T12:01:24.995Z,100206.86
2018-07-13T12:03:55.100Z,100198.52
2018-07-13T12:06:24.926Z,100203.16
2018-07-13T12:08:54.721Z,100200.58
2018-07-13T12:11:24.518Z,100202.30
2018-07-13T12:13:54.358Z,100192.75
2018-07-13T12:16:24.703Z,100184.09
2018-07-13T12:18:54.531Z,100180.69
2018-07-13T12:21:24.465Z,100177.55
2018-07-13T12:23:54.417Z,100183.03
2018-07-13T12:26:26.770Z,100186.78
2018-07-13T12:28:56.539Z,100192.98
2018-07-13T12:31:26.410Z,100218.91
2018-07-13T12:33:56.717Z,100210.03
2018-07-13T12:36:26.665Z,100206.09
2018-07-13T12:38:56.564Z,100208.05
2018-07-13T12:41:27.362Z,100203.87
2018-07-13T12:43:57.165Z,100201.96
2018-07-13T12:46:27.990Z,100201.42
2018-07-13T12:48:58.797Z,100204.33
2018-07-13T12:51:30.046Z,100204.45
2018-07-13T12:54:00.857Z,100199.38
2018-07-13T12:56:31.842Z,100191.52
2018-07-13T12:59:02.679Z,100191.55
2018-07-13T13:01:34.107Z,100186.84
2018-07-13T13:04:04.871Z,100196.61
2018-07-13T13:06:35.765Z,100190.02
2018-07-13T13:09:06.986Z,100187.25
2018-07-13T13:11:37.786Z,100182.87
2018-07-13T13:14:08.621Z,100177.80
2018-07-13T13:16:40.037Z,100175.72
2018-07-13T13:19:10.802Z,100169.09
2018-07-13T13:21:41.826Z,100173.62
2018-07-13T13:24:12.756Z,100163.83
2018-07-13T13:26:43.707Z,100161.67
2018-07-13T13:29:14.994Z,100153.89
2018-07-13T13:31:46.573Z,100152.28
2018-07-13T13:34:16.974Z,100154.23
2018-07-13T13:36:47.821Z,100148.64
2018-07-13T13:39:18.730Z,100148.23
2018-07-13T13:41:50.102Z,100150.23
2018-07-13T13:44:21.114Z,100143.09
2018-07-13T13:46:51.915Z,100143.94
2018-07-13T13:49:22.669Z,100138.78
2018-07-13T13:51:54.022Z,100133.72
2018-07-13T13:54:24.791Z,100134.23
2018-07-13T13:56:55.775Z,100132.03
2018-07-13T13:59:27.078Z,100136.45
2018-07-13T14:01:57.913Z,100141.59
2018-07-13T14:04:28.710Z,100135.27
2018-07-13T14:07:00.077Z,100141.66
2018-07-13T14:09:30.922Z,100138.23
2018-07-13T14:12:01.898Z,100135.18
2018-07-13T14:14:32.880Z,100132.56
2018-07-13T14:17:04.019Z,100124.19
2018-07-13T14:19:34.917Z,100130.56
2018-07-13T14:22:05.798Z,100120.91
2018-07-13T14:24:36.790Z,100126.73
2018-07-13T14:27:07.880Z,100118.74
2018-07-13T14:29:38.726Z,100119.06
2018-07-13T14:32:09.383Z,100114.44
2018-07-13T14:34:40.065Z,100122.95
2018-07-13T14:37:11.885Z,100110.22
2018-07-13T14:39:41.756Z,100114.59
2018-07-13T14:42:12.773Z,100110.88
2018-07-13T14:44:43.680Z,100112.88
2018-07-13T14:47:15.149Z,100111.30
2018-07-13T14:49:45.863Z,100116.31
2018-07-13T14:52:17.280Z,100138.78
2018-07-13T14:54:48.035Z,100180.19
2018-07-13T14:57:18.964Z,100219.22
2018-07-13T14:59:49.979Z,100215.67
2018-07-13T15:02:21.099Z,100231.72
2018-07-13T15:04:52.122Z,100227.90
2018-07-13T15:07:23.077Z,100228.71
2018-07-13T15:09:53.984Z,100223.63
2018-07-13T15:12:24.914Z,100223.16
2018-07-13T15:14:55.866Z,100227.11
2018-07-13T15:17:26.887Z,100258.27
2018-07-13T15:19:57.898Z,100256.90
2018-07-13T15:22:28.922Z,100237.42
2018-07-13T15:25:00.011Z,100230.69
2018-07-13T15:27:30.921Z,100227.83
2018-07-13T15:30:01.817Z,100211.02
2018-07-13T15:32:33.485Z,100202.04
2018-07-13T15:35:04.231Z,100192.13
2018-07-13T15:37:35.179Z,100188.63
2018-07-13T15:40:06.968Z,100172.58
2018-07-13T15:42:36.944Z,100173.86
2018-07-13T15:45:08.879Z,100171.77
2018-07-13T15:47:38.894Z,100170.98
2018-07-13T15:50:09.328Z,100169.32
2018-07-13T15:52:40.131Z,100172.70
2018-07-13T15:55:11.733Z,100174.52
2018-07-13T15:57:41.889Z,100174.84
2018-07-13T16:00:12.873Z,100179.31
2018-07-13T16:02:43.873Z,100176.22
2018-07-13T16:05:14.768Z,100179.69
2018-07-13T16:07:45.903Z,100173.91
2018-07-13T16:10:16.820Z,100165.66
2018-07-13T16:12:48.375Z,100166.13
2018-07-13T16:15:19.392Z,100165.80
2018-07-13T16:17:50.130Z,100165.89
2018-07-13T16:20:21.082Z,100176.55
2018-07-13T16:22:52.034Z,100181.99
2018-07-13T16:25:22.862Z,100185.97
2018-07-13T16:27:53.811Z,100186.00
2018-07-13T16:30:24.818Z,100188.95
2018-07-13T16:32:55.781Z,100180.17
2018-07-13T16:35:26.724Z,100183.88
2018-07-13T16:37:58.106Z,100186.92
2018-07-13T16:40:28.950Z,100189.00
2018-07-13T16:42:59.851Z,100185.80
2018-07-13T16:45:30.753Z,100176.42
2018-07-13T16:48:02.409Z,100177.95
2018-07-13T16:50:34.146Z,100180.38
2018-07-13T16:53:04.249Z,100181.72
2018-07-13T16:55:36.003Z,100179.78
2018-07-13T16:58:06.082Z,100183.25
2018-07-13T17:00:37.049Z,100187.59
2018-07-13T17:03:08.117Z,100193.01
2018-07-13T17:05:38.984Z,100196.22
2018-07-13T17:08:09.918Z,100189.30
2018-07-13T17:10:40.794Z,100190.62
2018-07-13T17:13:12.186Z,100197.70
2018-07-13T17:15:43.010Z,100203.14
2018-07-13T17:18:13.946Z,100195.95
2018-07-13T17:20:45.034Z,100198.55
2018-07-13T17:23:15.927Z,100211.76
2018-07-13T17:25:46.716Z,100238.03
2018-07-13T17:28:18.198Z,100239.02
2018-07-13T17:30:48.945Z,100235.94
2018-07-13T17:33:19.872Z,100236.69
2018-07-13T17:35:50.756Z,100241.19
2018-07-13T17:38:21.767Z,100238.84
2018-07-13T17:40:52.940Z,100236.02
2018-07-13T17:43:23.819Z,100236.13
2018-07-13T17:45:54.685Z,100221.27
2018-07-13T17:48:25.954Z,100216.58
2018-07-13T17:50:57.674Z,100206.41
2018-07-13T17:53:28.221Z,100216.50
2018-07-13T17:55:59.183Z,100212.23
2018-07-13T17:58:29.987Z,100214.09
2018-07-13T18:01:00.782Z,100214.83
2018-07-13T18:03:31.794Z,100218.32
2018-07-13T18:06:02.909Z,100222.05
2018-07-13T18:08:34.048Z,100214.65
2018-07-13T18:11:04.929Z,100202.96
2018-07-13T18:13:35.785Z,100208.97
2018-07-13T18:16:06.753Z,100210.73
2018-07-13T18:18:37.710Z,100209.77
2018-07-13T18:21:09.004Z,100203.63
2018-07-13T18:23:39.830Z,100196.28
2018-07-13T18:26:10.679Z,100201.36
2018-07-13T18:28:42.043Z,100208.40
2018-07-13T18:31:13.663Z,100219.67
2018-07-13T18:33:44.212Z,100231.13
2018-07-13T18:36:14.970Z,100228.43
2018-07-13T18:38:45.896Z,100226.83
2018-07-13T18:41:16.852Z,100228.41
2018-07-13T18:43:48.454Z,100226.77
2018-07-13T18:46:18.990Z,100214.34
2018-07-13T18:48:50.086Z,100220.84
2018-07-13T18:51:20.010Z,100221.07
2018-07-13T18:53:50.952Z,100224.50
2018-07-13T18:56:21.818Z,100220.34
2018-07-13T18:58:52.823Z,100220.39
2018-07-13T19:01:23.997Z,100219.78
2018-07-13T19:03:54.828Z,100217.81
2018-07-13T19:06:25.707Z,100219.36
2018-07-13T19:08:57.095Z,100228.67
2018-07-13T19:11:27.934Z,100236.77
2018-07-13T19:13:57.885Z,100237.20
2018-07-13T19:16:29.527Z,100234.31
2018-07-13T19:19:01.137Z,100249.41
2018-07-13T19:21:32.030Z,100254.40
2018-07-13T19:24:03.757Z,100250.89
2018-07-13T19:26:33.714Z,100265.88
2018-07-13T19:29:05.010Z,100273.83
2018-07-13T19:31:35.576Z,100273.12
2018-07-13T19:34:06.263Z,100278.38
2018-07-13T19:36:36.950Z,100279.52
2018-07-13T19:39:08.274Z,100275.28
2018-07-13T19:41:38.926Z,100267.42
2018-07-13T19:44:08.818Z,100278.38
2018-07-13T19:46:38.686Z,100279.08
2018-07-13T19:49:08.797Z,100278.34
2018-07-13T19:51:38.713Z,100276.47
2018-07-13T19:54:09.792Z,100272.34
2018-07-13T19:56:39.854Z,100286.09
2018-07-13T19:59:09.851Z,100289.06
2018-07-13T20:01:40.018Z,100294.03
2018-07-13T20:04:09.980Z,100290.09
2018-07-13T20:06:39.919Z,100295.06
2018-07-13T20:09:09.870Z,100297.94
2018-07-13T20:11:39.857Z,100294.63
2018-07-13T20:14:10.003Z,100296.38
2018-07-13T20:16:39.866Z,100293.69
2018-07-13T20:19:09.957Z,100294.28
2018-07-13T20:21:39.756Z,100295.72
2018-07-13T20:24:09.897Z,100296.12
2018-07-13T20:26:39.860Z,100300.55
2018-07-13T20:29:09.868Z,100299.61
2018-07-13T20:31:39.963Z,100303.83
2018-07-13T20:34:09.886Z,100309.91
2018-07-13T20:36:40.084Z,100310.00
2018-07-13T20:39:10.058Z,100309.59
2018-07-13T20:41:39.977Z,100308.73
2018-07-13T20:44:09.874Z,100315.61
2018-07-13T20:46:39.820Z,100306.67
2018-07-13T20:49:09.862Z,100308.49
2018-07-13T20:51:39.862Z,100308.58
2018-07-13T20:54:09.850Z,100303.55
2018-07-13T20:56:40.169Z,100308.73
2018-07-13T20:59:10.149Z,100306.45
2018-07-13T21:01:39.986Z,100306.77
2018-07-13T21:04:09.864Z,100314.05
2018-07-13T21:06:39.978Z,100307.87
2018-07-13T21:09:10.006Z,100302.66
2018-07-13T21:11:40.094Z,100308.99
2018-07-13T21:14:10.214Z,100311.54
2018-07-13T21:16:40.164Z,100312.64
2018-07-13T21:19:09.940Z,100322.73
2018-07-13T21:21:39.768Z,100320.69
2018-07-13T21:24:09.828Z,100314.69
2018-07-13T21:26:39.813Z,100321.21
2018-07-13T21:29:09.846Z,100317.51
2018-07-13T21:31:39.958Z,100311.66
2018-07-13T21:34:09.785Z,100317.83
2018-07-13T21:36:39.773Z,100318.78
2018-07-13T21:39:09.859Z,100313.34
2018-07-13T21:41:39.752Z,100311.83
2018-07-13T21:44:09.800Z,100316.73
2018-07-13T21:46:39.794Z,100316.73
2018-07-13T21:49:09.738Z,100310.35
2018-07-13T21:51:40.019Z,100310.03
2018-07-13T21:54:09.920Z,100315.71
2018-07-13T21:56:39.804Z,100311.83
2018-07-13T21:59:09.816Z,100306.78
2018-07-13T22:01:39.833Z,100311.22
2018-07-13T22:04:09.846Z,100306.17
2018-07-13T22:06:39.761Z,100306.49
2018-07-13T22:09:09.769Z,100304.52
2018-07-13T22:11:39.849Z,100302.55
2018-07-13T22:14:09.800Z,100306.57
2018-07-13T22:16:39.697Z,100306.47
2018-07-13T22:19:09.743Z,100283.84
2018-07-13T22:21:39.836Z,100293.84
2018-07-13T22:24:09.716Z,100296.39
2018-07-13T22:26:39.790Z,100294.09
2018-07-13T22:29:09.712Z,100302.14
2018-07-13T22:31:39.930Z,100299.06
2018-07-13T22:34:09.700Z,100298.57
2018-07-13T22:36:40.105Z,100296.06
2018-07-13T22:39:09.897Z,100295.44
2018-07-13T22:41:39.793Z,100292.97
2018-07-13T22:44:09.796Z,100297.48
2018-07-13T22:46:39.727Z,100301.19
2018-07-13T22:49:09.749Z,100293.67
2018-07-13T22:51:39.752Z,100296.03
2018-07-13T22:54:09.696Z,100299.45
2018-07-13T22:56:39.697Z,100304.95
2018-07-13T22:59:09.860Z,100310.81
2018-07-13T23:01:39.847Z,100307.32
2018-07-13T23:04:09.709Z,100307.11
2018-07-13T23:06:39.785Z,100312.30
2018-07-13T23:09:09.965Z,100313.81
2018-07-13T23:11:40.091Z,100317.20
2018-07-13T23:14:09.866Z,100318.22
2018-07-13T23:16:40.128Z,100319.88
2018-07-13T23:19:09.969Z,100316.25
2018-07-13T23:21:39.884Z,100316.14
2018-07-13T23:24:10.257Z,100318.75
2018-07-13T23:26:40.523Z,100319.36
2018-07-13T23:29:11.198Z,100319.42
2018-07-13T23:31:41.084Z,100315.27
2018-07-13T23:34:10.929Z,100312.27
2018-07-13T23:36:40.834Z,100315.30
2018-07-13T23:39:10.689Z,100311.17
2018-07-13T23:41:40.514Z,100314.55
2018-07-13T23:44:10.892Z,100321.44
2018-07-13T23:46:41.199Z,100314.41
2018-07-13T23:49:10.965Z,100319.14
2018-07-13T23:51:40.773Z,100312.51
2018-07-13T23:54:11.266Z,100310.80
2018-07-13T23:56:42.518Z,100318.31
2018-07-13T23:59:13.339Z,100316.34
